createdAt,value
2022-09-23T00:01:09.014Z,101754.09
2022-09-23T00:03:37.481Z,101746.41
2022-09-23T00:08:54.522Z,101748.88
2022-09-23T00:11:23.804Z,101740.50
2022-09-23T00:13:52.435Z,101748.81
2022-09-23T00:16:22.443Z,101748.56
2022-09-23T00:18:52.128Z,101745.13
2022-09-23T00:21:21.415Z,101747.66
2022-09-23T00:23:48.637Z,101754.13
2022-09-23T00:26:17.257Z,101747.13
2022-09-23T00:28:44.153Z,101741.28
2022-09-23T00:31:13.504Z,101732.56
2022-09-23T00:33:43.129Z,101733.94
2022-09-23T00:36:12.158Z,101738.50
2022-09-23T00:38:38.839Z,101734.56
2022-09-23T00:41:06.541Z,101733.84
2022-09-23T00:43:40.534Z,101729.59
2022-09-23T00:46:09.495Z,101733.66
2022-09-23T00:48:38.109Z,101727.66
2022-09-23T00:51:05.359Z,101730.38
2022-09-23T00:53:31.845Z,101720.66
2022-09-23T00:56:02.812Z,101732.59
2022-09-23T00:58:32.261Z,101720.28
2022-09-23T01:01:02.797Z,101728.63
2022-09-23T01:03:29.797Z,101731.50
2022-09-23T01:05:56.993Z,101726.22
2022-09-23T01:08:24.133Z,101731.84
2022-09-23T01:11:06.123Z,101724.66
2022-09-23T01:13:52.569Z,101730.44
2022-09-23T01:16:36.695Z,101724.44
2022-09-23T01:19:35.033Z,101726.31
2022-09-23T01:22:26.570Z,101718.47
2022-09-23T01:25:25.414Z,101724.22
2022-09-23T01:28:12.435Z,101717.22
2022-09-23T01:31:14.614Z,101718.72
2022-09-23T01:33:52.030Z,101717.16
2022-09-23T01:36:39.855Z,101711.88
2022-09-23T01:39:11.628Z,101700.97
2022-09-23T01:42:02.761Z,101708.44
2022-09-23T01:44:34.945Z,101698.41
2022-09-23T01:47:14.158Z,101702.13
2022-09-23T01:49:57.574Z,101703.69
2022-09-23T01:52:32.742Z,101697.28
2022-09-23T01:55:10.457Z,101691.53
2022-09-23T01:57:45.526Z,101693.00
2022-09-23T02:00:15.473Z,101693.50
2022-09-23T02:03:07.635Z,101688.75
2022-09-23T02:05:40.175Z,101677.69
2022-09-23T02:08:10.880Z,101678.94
2022-09-23T02:10:44.178Z,101683.50
2022-09-23T02:13:18.076Z,101683.69
2022-09-23T02:15:50.130Z,101684.53
2022-09-23T02:18:26.616Z,101685.41
2022-09-23T02:21:00.515Z,101680.97
2022-09-23T02:23:34.412Z,101676.34
2022-09-23T02:26:14.626Z,101672.91
2022-09-23T02:28:48.190Z,101674.63
2022-09-23T02:31:20.690Z,101665.41
2022-09-23T02:33:55.112Z,101667.44
2022-09-23T02:36:36.810Z,101668.50
2022-09-23T02:39:06.166Z,101665.06
2022-09-23T02:41:37.384Z,101669.50
2022-09-23T02:44:07.945Z,101664.38
2022-09-23T02:46:34.529Z,101659.41
2022-09-23T02:49:31.224Z,101660.75
2022-09-23T02:52:00.852Z,101664.66
2022-09-23T02:54:28.700Z,101654.06
2022-09-23T02:56:55.464Z,101655.06
2022-09-23T02:59:23.219Z,101656.97
2022-09-23T03:02:23.804Z,101653.34
2022-09-23T03:05:18.163Z,101651.66
2022-09-23T03:08:01.654Z,101644.34
2022-09-23T03:10:36.376Z,101647.75
2022-09-23T03:18:56.704Z,101646.94
2022-09-23T03:21:29.227Z,101644.41
2022-09-23T03:23:59.774Z,101646.19
2022-09-23T03:26:32.175Z,101634.75
2022-09-23T03:29:02.818Z,101638.03
2022-09-23T03:31:30.184Z,101634.66
2022-09-23T03:33:59.108Z,101624.59
2022-09-23T03:36:53.924Z,101617.75
2022-09-23T03:39:40.948Z,101632.63
2022-09-23T03:42:16.989Z,101623.06
2022-09-23T03:44:45.507Z,101621.72
2022-09-23T03:47:13.794Z,101621.88
2022-09-23T03:49:44.899Z,101610.59
2022-09-23T03:52:11.526Z,101607.19
2022-09-23T03:54:38.020Z,101601.03
2022-09-23T03:57:04.676Z,101598.47
2022-09-23T03:59:31.733Z,101591.31
2022-09-23T04:01:59.614Z,101590.28
2022-09-23T04:04:27.820Z,101598.13
2022-09-23T04:06:57.425Z,101587.53
2022-09-23T04:09:24.133Z,101590.94
2022-09-23T04:11:51.475Z,101593.16
2022-09-23T04:14:19.346Z,101588.22
2022-09-23T04:16:46.953Z,101587.72
2022-09-23T04:19:14.532Z,101586.34
2022-09-23T04:21:41.962Z,101590.09
2022-09-23T04:24:09.289Z,101594.34
2022-09-23T04:26:36.597Z,101597.78
2022-09-23T04:29:04.893Z,101593.84
2022-09-23T04:31:32.276Z,101597.25
2022-09-23T04:33:59.232Z,101594.00
2022-09-23T04:36:25.996Z,101595.03
2022-09-23T04:38:52.508Z,101590.91
2022-09-23T04:41:19.483Z,101595.72
2022-09-23T04:43:46.163Z,101593.31
2022-09-23T04:46:14.213Z,101591.44
2022-09-23T04:48:41.780Z,101590.44
2022-09-23T04:51:18.320Z,101587.03
2022-09-23T04:53:46.839Z,101586.19
2022-09-23T04:56:25.043Z,101586.16
2022-09-23T04:58:51.653Z,101594.38
2022-09-23T05:01:24.241Z,101588.22
2022-09-23T05:03:53.000Z,101591.63
2022-09-23T05:06:20.435Z,101595.41
2022-09-23T05:08:55.073Z,101598.31
2022-09-23T05:11:22.063Z,101592.47
2022-09-23T05:13:49.929Z,101597.78
2022-09-23T05:16:17.714Z,101599.16
2022-09-23T05:18:45.174Z,101595.56
2022-09-23T05:21:13.258Z,101602.41
2022-09-23T05:23:40.775Z,101608.03
2022-09-23T05:26:09.944Z,101602.75
2022-09-23T05:28:39.233Z,101606.16
2022-09-23T05:31:19.967Z,101606.16
2022-09-23T05:34:06.358Z,101614.34
2022-09-23T05:36:37.853Z,101600.69
2022-09-23T05:39:05.355Z,101605.81
2022-09-23T05:41:32.293Z,101602.22
2022-09-23T05:43:59.762Z,101603.94
2022-09-23T05:46:28.557Z,101604.63
2022-09-23T05:48:58.714Z,101605.97
2022-09-23T05:51:30.947Z,101609.06
2022-09-23T05:53:58.790Z,101605.97
2022-09-23T05:56:27.391Z,101596.09
2022-09-23T05:58:55.320Z,101601.03
2022-09-23T06:01:26.456Z,101605.09
2022-09-23T06:03:54.322Z,101603.25
2022-09-23T06:06:26.183Z,101602.53
2022-09-23T06:08:53.064Z,101604.94
2022-09-23T06:11:21.422Z,101604.25
2022-09-23T06:19:13.261Z,101593.81
2022-09-23T06:21:40.586Z,101600.13
2022-09-23T06:24:07.915Z,101596.00
2022-09-23T06:26:35.651Z,101591.47
2022-09-23T06:29:02.795Z,101589.22
2022-09-23T06:31:29.644Z,101588.56
2022-09-23T06:34:08.375Z,101587.69
2022-09-23T06:36:43.092Z,101585.63
2022-09-23T06:39:10.332Z,101595.69
2022-09-23T06:41:36.812Z,101586.78
2022-09-23T06:44:03.509Z,101580.66
2022-09-23T06:46:31.639Z,101589.41
2022-09-23T06:48:58.306Z,101591.75
2022-09-23T06:51:24.826Z,101588.84
2022-09-23T06:53:51.480Z,101583.31
2022-09-23T06:56:19.982Z,101589.47
2022-09-23T06:58:46.932Z,101585.38
2022-09-23T07:01:19.862Z,101581.47
2022-09-23T07:03:48.291Z,101579.75
2022-09-23T07:06:15.493Z,101586.72
2022-09-23T07:08:51.155Z,101591.34
2022-09-23T07:11:19.417Z,101585.69
2022-09-23T07:13:46.049Z,101583.50
2022-09-23T07:16:12.676Z,101587.03
2022-09-23T07:18:41.029Z,101591.28
2022-09-23T07:21:14.946Z,101581.56
2022-09-23T07:23:42.515Z,101587.63
2022-09-23T07:26:09.149Z,101585.78
2022-09-23T07:28:37.071Z,101573.69
2022-09-23T07:31:09.521Z,101570.50
2022-09-23T07:33:37.505Z,101573.03
2022-09-23T07:36:09.078Z,101568.72
2022-09-23T07:38:36.529Z,101568.78
2022-09-23T07:41:05.195Z,101573.50
2022-09-23T07:43:34.550Z,101577.50
2022-09-23T07:46:03.153Z,101576.03
2022-09-23T07:48:34.033Z,101583.06
2022-09-23T07:51:06.300Z,101582.88
2022-09-23T07:53:33.364Z,101582.66
2022-09-23T07:55:59.943Z,101584.69
2022-09-23T07:58:26.512Z,101581.09
2022-09-23T08:00:54.127Z,101580.16
2022-09-23T08:03:21.243Z,101584.50
2022-09-23T08:05:47.874Z,101583.34
2022-09-23T08:08:14.386Z,101593.69
2022-09-23T08:10:40.945Z,101586.38
2022-09-23T08:13:07.490Z,101588.97
2022-09-23T08:15:34.305Z,101587.47
2022-09-23T08:18:01.201Z,101583.00
2022-09-23T08:20:47.850Z,101589.16
2022-09-23T08:23:16.738Z,101587.06
2022-09-23T08:25:47.027Z,101588.88
2022-09-23T08:28:18.659Z,101586.06
2022-09-23T08:30:48.591Z,101588.81
2022-09-23T08:33:19.657Z,101589.47
2022-09-23T08:35:49.256Z,101593.44
2022-09-23T08:43:54.721Z,101589.63
2022-09-23T08:46:26.852Z,101596.22
2022-09-23T08:48:53.769Z,101586.00
2022-09-23T08:51:25.616Z,101590.84
2022-09-23T08:53:52.397Z,101594.97
2022-09-23T08:56:22.695Z,101595.06
2022-09-23T08:59:14.748Z,101594.00
2022-09-23T09:01:47.355Z,101605.19
2022-09-23T09:04:35.628Z,101592.56
2022-09-23T09:07:34.590Z,101601.41
2022-09-23T09:10:28.286Z,101606.25
2022-09-23T09:13:02.059Z,101589.75
2022-09-23T09:15:28.787Z,101593.03
2022-09-23T09:18:07.805Z,101593.16
2022-09-23T09:20:59.287Z,101589.84
2022-09-23T09:23:43.665Z,101598.44
2022-09-23T09:26:17.522Z,101597.72
2022-09-23T09:28:51.210Z,101595.50
2022-09-23T09:31:26.974Z,101591.31
2022-09-23T09:33:57.823Z,101587.72
2022-09-23T09:36:33.141Z,101587.41
2022-09-23T09:38:59.784Z,101581.06
2022-09-23T09:41:31.196Z,101581.19
2022-09-23T09:44:00.591Z,101574.38
2022-09-23T09:46:52.070Z,101571.56
2022-09-23T09:49:25.075Z,101580.66
2022-09-23T09:52:13.428Z,101579.44
2022-09-23T09:54:40.034Z,101579.63
2022-09-23T09:57:16.658Z,101578.53
2022-09-23T09:59:44.149Z,101578.63
2022-09-23T10:02:26.849Z,101568.81
2022-09-23T10:05:02.467Z,101574.53
2022-09-23T10:07:31.436Z,101574.16
2022-09-23T10:10:06.111Z,101564.75
2022-09-23T10:12:47.228Z,101566.72
2022-09-23T10:15:33.147Z,101556.31
2022-09-23T10:18:02.924Z,101568.97
2022-09-23T10:20:38.201Z,101567.22
2022-09-23T10:23:16.492Z,101554.06
2022-09-23T10:25:42.990Z,101555.94
2022-09-23T10:28:41.131Z,101550.59
2022-09-23T10:31:25.022Z,101548.47
2022-09-23T10:34:00.406Z,101556.94
2022-09-23T10:36:28.293Z,101561.41
2022-09-23T10:39:19.429Z,101555.31
2022-09-23T10:42:17.186Z,101545.31
2022-09-23T10:45:18.094Z,101552.88
2022-09-23T10:47:54.816Z,101559.16
2022-09-23T10:50:34.713Z,101547.91
2022-09-23T10:53:28.749Z,101547.81
2022-09-23T10:56:13.603Z,101541.72
2022-09-23T10:58:52.421Z,101536.09
2022-09-23T11:01:37.722Z,101538.19
2022-09-23T11:04:38.477Z,101548.84
2022-09-23T11:07:17.205Z,101548.22
2022-09-23T11:10:00.343Z,101548.81
2022-09-23T11:12:55.959Z,101547.31
2022-09-23T11:15:44.061Z,101534.53
2022-09-23T11:18:16.627Z,101548.38
2022-09-23T11:20:51.448Z,101546.91
2022-09-23T11:23:40.651Z,101536.75
2022-09-23T11:26:30.607Z,101545.22
2022-09-23T11:29:06.832Z,101533.13
2022-09-23T11:31:48.710Z,101532.47
2022-09-23T11:34:34.936Z,101533.34
2022-09-23T11:37:09.153Z,101541.63
2022-09-23T11:39:40.235Z,101531.00
2022-09-23T11:42:10.730Z,101526.13
2022-09-23T11:44:41.155Z,101521.91
2022-09-23T11:47:22.546Z,101513.34
2022-09-23T11:50:02.820Z,101509.53
2022-09-23T11:52:33.946Z,101505.06
2022-09-23T11:55:22.643Z,101517.34
2022-09-23T11:58:25.346Z,101513.84
2022-09-23T12:01:01.186Z,101513.84
2022-09-23T12:03:52.335Z,101516.22
2022-09-23T12:06:26.870Z,101511.84
2022-09-23T12:09:02.533Z,101506.78
2022-09-23T12:11:58.919Z,101515.06
2022-09-23T12:14:46.923Z,101505.22
2022-09-23T12:17:44.667Z,101504.72
2022-09-23T12:20:23.325Z,101507.84
2022-09-23T12:23:13.217Z,101505.28
2022-09-23T12:25:57.122Z,101491.66
2022-09-23T12:28:35.653Z,101489.75
2022-09-23T12:31:04.118Z,101489.09
2022-09-23T12:33:32.589Z,101494.34
2022-09-23T12:36:10.035Z,101485.25
2022-09-23T12:38:38.773Z,101485.22
2022-09-23T12:41:22.003Z,101484.91
2022-09-23T12:43:56.865Z,101489.84
2022-09-23T12:46:28.353Z,101483.59
2022-09-23T12:48:57.924Z,101490.19
2022-09-23T12:51:25.811Z,101477.97
2022-09-23T12:54:18.443Z,101486.78
2022-09-23T12:56:56.332Z,101485.50
2022-09-23T12:59:22.851Z,101484.88
2022-09-23T13:01:49.614Z,101480.41
2022-09-23T13:04:53.004Z,101478.97
2022-09-23T13:07:26.033Z,101469.88
2022-09-23T13:09:56.565Z,101474.53
2022-09-23T13:12:31.121Z,101474.53
2022-09-23T13:15:03.497Z,101473.88
2022-09-23T13:17:37.040Z,101464.75
2022-09-23T13:20:07.048Z,101466.22
2022-09-23T13:22:50.805Z,101465.16
2022-09-23T13:25:26.555Z,101456.69
2022-09-23T13:27:55.424Z,101457.13
2022-09-23T13:30:26.655Z,101458.81
2022-09-23T13:33:11.306Z,101449.13
2022-09-23T13:35:40.711Z,101457.78
2022-09-23T13:38:28.250Z,101466.09
2022-09-23T13:40:59.048Z,101470.97
2022-09-23T13:43:31.793Z,101449.78
2022-09-23T13:45:58.891Z,101449.97
2022-09-23T13:48:27.131Z,101451.25
2022-09-23T13:50:54.731Z,101449.78
2022-09-23T13:53:29.265Z,101443.38
2022-09-23T13:56:05.034Z,101446.78
2022-09-23T13:58:33.311Z,101443.59
2022-09-23T14:01:00.026Z,101446.56
2022-09-23T14:03:37.703Z,101451.47
2022-09-23T14:06:15.562Z,101440.63
2022-09-23T14:08:45.293Z,101434.94
2022-09-23T14:11:19.529Z,101437.03
2022-09-23T14:13:48.721Z,101429.81
2022-09-23T14:16:16.213Z,101430.25
2022-09-23T14:18:47.123Z,101427.06
2022-09-23T14:21:28.717Z,101424.72
2022-09-23T14:23:55.338Z,101420.91
2022-09-23T14:26:23.657Z,101425.78
2022-09-23T14:28:50.387Z,101421.75
2022-09-23T14:31:17.057Z,101422.56
2022-09-23T14:33:43.671Z,101429.38
2022-09-23T14:36:34.601Z,101425.75
2022-09-23T14:39:09.500Z,101418.75
2022-09-23T14:41:45.043Z,101423.63
2022-09-23T14:44:22.632Z,101424.28
2022-09-23T14:46:58.007Z,101406.44
2022-09-23T14:49:24.821Z,101408.59
2022-09-23T14:51:56.070Z,101399.88
2022-09-23T14:54:42.159Z,101407.28
2022-09-23T14:57:23.944Z,101408.69
2022-09-23T15:00:14.471Z,101410.53
2022-09-23T15:02:45.684Z,101425.03
2022-09-23T15:05:21.750Z,101417.41
2022-09-23T15:07:50.972Z,101420.31
2022-09-23T15:10:27.726Z,101417.50
2022-09-23T15:12:55.762Z,101423.63
2022-09-23T15:15:28.034Z,101417.69
2022-09-23T15:17:54.750Z,101422.94
2022-09-23T15:20:26.374Z,101417.41
2022-09-23T15:22:55.148Z,101427.16
2022-09-23T15:25:36.248Z,101432.25
2022-09-23T15:28:10.193Z,101436.97
2022-09-23T15:30:38.165Z,101438.78
2022-09-23T15:33:05.178Z,101446.72
2022-09-23T15:35:32.178Z,101442.78
2022-09-23T15:38:03.265Z,101449.97
2022-09-23T15:40:32.432Z,101442.41
2022-09-23T15:43:07.105Z,101438.53
2022-09-23T15:45:44.685Z,101434.81
2022-09-23T15:48:16.207Z,101440.34
2022-09-23T15:50:42.938Z,101441.00
2022-09-23T15:53:18.743Z,101440.59
2022-09-23T15:55:45.621Z,101442.09
2022-09-23T15:58:12.195Z,101445.25
2022-09-23T16:00:38.805Z,101442.09
2022-09-23T16:03:06.608Z,101444.06
2022-09-23T16:05:37.772Z,101442.19
2022-09-23T16:08:10.103Z,101433.63
2022-09-23T16:10:37.655Z,101430.03
2022-09-23T16:13:07.757Z,101429.41
2022-09-23T16:15:34.425Z,101431.75
2022-09-23T16:18:01.564Z,101436.81
2022-09-23T16:20:29.920Z,101433.22
2022-09-23T16:23:00.705Z,101424.53
2022-09-23T16:25:29.846Z,101425.00
2022-09-23T16:27:56.520Z,101422.31
2022-09-23T16:30:24.201Z,101425.28
2022-09-23T16:32:51.775Z,101424.63
2022-09-23T16:35:22.896Z,101420.44
2022-09-23T16:37:50.132Z,101416.63
2022-09-23T16:40:22.245Z,101414.75
2022-09-23T16:42:50.321Z,101410.13
2022-09-23T16:45:18.133Z,101414.53
2022-09-23T16:47:46.454Z,101412.34
2022-09-23T16:50:14.275Z,101405.56
2022-09-23T16:52:41.714Z,101413.16
2022-09-23T16:55:10.385Z,101404.72
2022-09-23T16:57:38.229Z,101403.66
2022-09-23T17:00:26.442Z,101394.50
2022-09-23T17:03:11.549Z,101400.91
2022-09-23T17:05:38.478Z,101391.81
2022-09-23T17:08:05.668Z,101393.84
2022-09-23T17:10:32.963Z,101389.22
2022-09-23T17:13:00.525Z,101387.09
2022-09-23T17:15:27.102Z,101390.44
2022-09-23T17:17:53.687Z,101390.06
2022-09-23T17:20:20.405Z,101391.53
2022-09-23T17:22:46.983Z,101393.03
2022-09-23T17:25:13.468Z,101391.97
2022-09-23T17:27:39.974Z,101394.06
2022-09-23T17:30:07.257Z,101393.69
2022-09-23T17:32:33.965Z,101388.13
2022-09-23T17:35:04.492Z,101388.75
2022-09-23T17:37:32.318Z,101390.78
2022-09-23T17:39:59.598Z,101387.66
2022-09-23T17:42:26.316Z,101388.53
2022-09-23T17:44:52.824Z,101391.03
2022-09-23T17:47:19.287Z,101402.13
2022-09-23T17:49:47.605Z,101392.06
2022-09-23T17:52:14.115Z,101392.31
2022-09-23T17:54:40.613Z,101395.16
2022-09-23T17:57:07.568Z,101421.63
2022-09-23T17:59:34.620Z,101405.69
2022-09-23T18:02:01.221Z,101427.81
2022-09-23T18:04:27.750Z,101436.97
2022-09-23T18:06:54.247Z,101447.84
2022-09-23T18:09:21.195Z,101445.44
2022-09-23T18:11:49.650Z,101445.75
2022-09-23T18:14:22.931Z,101451.59
2022-09-23T18:16:53.643Z,101455.13
2022-09-23T18:19:21.780Z,101454.63
2022-09-23T18:21:54.501Z,101459.41
2022-09-23T18:24:31.899Z,101447.44
2022-09-23T18:26:59.993Z,101456.69
2022-09-23T18:29:26.850Z,101447.09
2022-09-23T18:31:53.452Z,101459.06
2022-09-23T18:34:20.422Z,101454.28
2022-09-23T18:36:47.128Z,101454.09
2022-09-23T18:39:13.660Z,101445.38
2022-09-23T18:41:41.044Z,101452.75
2022-09-23T18:44:07.844Z,101453.59
2022-09-23T18:46:34.409Z,101451.34
2022-09-23T18:49:19.589Z,101448.59
2022-09-23T18:51:56.694Z,101446.41
2022-09-23T18:54:24.908Z,101455.66
2022-09-23T18:56:52.754Z,101454.47
2022-09-23T18:59:21.041Z,101444.56
2022-09-23T19:01:49.918Z,101449.63
2022-09-23T19:04:19.028Z,101450.31
2022-09-23T19:06:45.642Z,101444.16
2022-09-23T19:09:12.393Z,101443.69
2022-09-23T19:11:39.097Z,101443.88
2022-09-23T19:14:10.825Z,101444.91
2022-09-23T19:16:39.017Z,101435.81
2022-09-23T19:19:05.965Z,101437.38
2022-09-23T19:21:33.420Z,101445.03
2022-09-23T19:24:05.523Z,101433.06
2022-09-23T19:26:38.119Z,101437.34
2022-09-23T19:29:05.976Z,101435.28
2022-09-23T19:31:34.848Z,101435.28
2022-09-23T19:34:10.641Z,101431.31
2022-09-23T19:36:39.768Z,101435.59
2022-09-23T19:39:26.908Z,101434.72
2022-09-23T19:41:56.705Z,101428.72
2022-09-23T19:44:25.118Z,101420.69
2022-09-23T19:46:55.886Z,101425.97
2022-09-23T19:49:23.909Z,101417.59
2022-09-23T19:51:50.390Z,101420.34
2022-09-23T19:54:20.867Z,101427.19
2022-09-23T19:56:50.392Z,101424.81
2022-09-23T19:59:19.117Z,101427.38
2022-09-23T20:01:47.368Z,101421.03
2022-09-23T20:04:15.807Z,101419.34
2022-09-23T20:06:42.570Z,101421.25
2022-09-23T20:09:09.283Z,101427.75
2022-09-23T20:11:36.025Z,101427.38
2022-09-23T20:14:04.088Z,101420.84
2022-09-23T20:16:32.941Z,101418.31
2022-09-23T20:19:00.704Z,101419.34
2022-09-23T20:21:28.379Z,101417.09
2022-09-23T20:23:55.534Z,101412.47
2022-09-23T20:26:40.807Z,101412.28
2022-09-23T20:29:08.859Z,101416.06
2022-09-23T20:31:35.531Z,101413.63
2022-09-23T20:34:05.546Z,101417.59
2022-09-23T20:36:33.125Z,101413.63
2022-09-23T20:39:01.438Z,101411.94
2022-09-23T20:41:29.743Z,101412.13
2022-09-23T20:43:59.486Z,101417.59
2022-09-23T20:46:29.436Z,101407.16
2022-09-23T20:48:56.817Z,101408.09
2022-09-23T20:51:24.697Z,101405.00
2022-09-23T20:53:52.942Z,101400.56
2022-09-23T20:56:23.035Z,101417.34
2022-09-23T20:58:50.785Z,101405.56
2022-09-23T21:01:18.227Z,101405.56
2022-09-23T21:03:46.963Z,101390.84
2022-09-23T21:06:16.430Z,101400.22
2022-09-23T21:08:44.437Z,101393.03
2022-09-23T21:11:12.857Z,101392.16
2022-09-23T21:13:39.392Z,101385.66
2022-09-23T21:16:16.205Z,101392.16
2022-09-23T21:18:43.465Z,101397.63
2022-09-23T21:21:10.950Z,101396.81
2022-09-23T21:23:38.752Z,101388.06
2022-09-23T21:26:06.822Z,101388.94
2022-09-23T21:28:38.506Z,101393.72
2022-09-23T21:31:07.849Z,101400.03
2022-09-23T21:33:36.651Z,101387.03
2022-09-23T21:36:04.895Z,101382.25
2022-09-23T21:38:34.277Z,101392.31
2022-09-23T21:41:02.067Z,101391.69
2022-09-23T21:43:33.694Z,101389.06
2022-09-23T21:46:05.651Z,101378.69
2022-09-23T21:48:41.176Z,101376.69
2022-09-23T21:51:19.200Z,101379.59
2022-09-23T21:53:46.512Z,101380.81
2022-09-23T21:56:20.518Z,101377.38
2022-09-23T21:58:48.058Z,101376.72
2022-09-23T22:01:20.050Z,101375.41
2022-09-23T22:03:52.327Z,101378.41
2022-09-23T22:06:21.612Z,101375.69
2022-09-23T22:08:58.970Z,101365.47
2022-09-23T22:11:46.241Z,101366.31
2022-09-23T22:14:14.271Z,101366.81
2022-09-23T22:16:41.719Z,101357.75
2022-09-23T22:19:09.307Z,101360.50
2022-09-23T22:21:37.295Z,101355.38
2022-09-23T22:24:05.916Z,101356.06
2022-09-23T22:26:40.840Z,101361.19
2022-09-23T22:29:27.300Z,101352.47
2022-09-23T22:32:12.915Z,101353.50
2022-09-23T22:34:50.148Z,101352.16
2022-09-23T22:37:21.107Z,101346.88
2022-09-23T22:39:47.671Z,101348.81
2022-09-23T22:42:14.379Z,101346.47
2022-09-23T22:44:40.932Z,101345.91
2022-09-23T22:47:08.032Z,101337.50
2022-09-23T22:49:34.795Z,101349.69
2022-09-23T22:52:03.995Z,101336.72
2022-09-23T22:54:33.914Z,101338.19
2022-09-23T22:57:03.278Z,101337.69
2022-09-23T22:59:29.883Z,101333.25
2022-09-23T23:01:57.244Z,101333.06
2022-09-23T23:04:24.016Z,101330.69
2022-09-23T23:06:51.081Z,101325.75
2022-09-23T23:09:18.960Z,101329.91
2022-09-23T23:11:45.804Z,101337.94
2022-09-23T23:14:13.488Z,101320.00
2022-09-23T23:16:40.827Z,101330.75
2022-09-23T23:19:10.074Z,101323.56
2022-09-23T23:21:37.060Z,101322.75
2022-09-23T23:24:04.843Z,101329.13
2022-09-23T23:26:33.253Z,101324.88
2022-09-23T23:29:00.667Z,101315.91
2022-09-23T23:31:28.836Z,101330.41
2022-09-23T23:33:55.477Z,101327.19
2022-09-23T23:36:22.973Z,101333.69
2022-09-23T23:38:51.510Z,101317.19
2022-09-23T23:41:20.306Z,101311.16
2022-09-23T23:43:47.469Z,101310.88
2022-09-23T23:46:14.921Z,101302.16
2022-09-23T23:48:45.403Z,101301.13
2022-09-23T23:51:11.920Z,101306.59
2022-09-23T23:53:39.843Z,101303.88
2022-09-23T23:56:08.900Z,101296.69
2022-09-23T23:58:35.798Z,101297.22
